createdAt,value
2022-10-10T00:01:34.382Z,15.75
2022-10-10T00:04:03.797Z,15.76
2022-10-10T00:06:33.362Z,15.81
2022-10-10T00:09:02.962Z,15.86
2022-10-10T00:11:31.251Z,15.86
2022-10-10T00:13:59.309Z,15.84
2022-10-10T00:16:27.247Z,15.87
2022-10-10T00:18:55.060Z,15.91
2022-10-10T00:21:22.905Z,15.94
2022-10-10T00:23:50.889Z,15.95
2022-10-10T00:26:19.501Z,16.00
2022-10-10T00:28:48.161Z,16.00
2022-10-10T00:31:16.487Z,16.04
2022-10-10T00:33:44.498Z,16.07
2022-10-10T00:36:12.509Z,16.09
2022-10-10T00:38:41.099Z,16.10
2022-10-10T00:41:09.216Z,16.09
2022-10-10T00:43:37.149Z,16.11
2022-10-10T00:46:05.323Z,16.14
2022-10-10T00:48:44.581Z,16.12
2022-10-10T00:51:17.176Z,16.12
2022-10-10T00:53:52.215Z,16.09
2022-10-10T00:56:26.111Z,16.03
2022-10-10T00:58:58.013Z,16.02
2022-10-10T01:01:26.436Z,15.98
2022-10-10T01:03:59.216Z,15.98
2022-10-10T01:06:27.513Z,15.97
2022-10-10T01:08:56.727Z,15.98
2022-10-10T01:12:13.758Z,15.98
2022-10-10T01:14:59.392Z,16.00
2022-10-10T01:17:47.744Z,15.96
2022-10-10T01:20:43.606Z,15.93
2022-10-10T01:24:01.588Z,15.90
2022-10-10T01:27:01.345Z,15.88
2022-10-10T01:29:53.801Z,15.86
2022-10-10T01:32:34.592Z,15.79
2022-10-10T01:35:22.601Z,15.77
2022-10-10T01:38:30.083Z,15.76
2022-10-10T01:41:19.164Z,15.76
2022-10-10T01:43:47.226Z,15.74
2022-10-10T01:46:18.806Z,15.72
2022-10-10T01:48:52.721Z,15.74
2022-10-10T01:51:58.363Z,15.74
2022-10-10T01:55:02.177Z,15.80
2022-10-10T01:57:52.139Z,15.84
2022-10-10T02:00:20.104Z,15.84
2022-10-10T02:03:16.308Z,15.81
2022-10-10T02:06:09.917Z,15.85
2022-10-10T02:09:11.128Z,15.86
2022-10-10T02:11:40.950Z,15.84
2022-10-10T02:14:32.055Z,15.84
2022-10-10T02:17:03.167Z,15.85
2022-10-10T02:19:31.537Z,15.85
2022-10-10T02:22:00.623Z,15.83
2022-10-10T02:24:28.553Z,15.84
2022-10-10T02:27:22.200Z,15.88
2022-10-10T02:29:52.997Z,15.87
2022-10-10T02:32:43.828Z,15.83
2022-10-10T02:35:25.373Z,15.82
2022-10-10T02:37:54.331Z,15.80
2022-10-10T02:40:28.474Z,15.81
2022-10-10T02:43:00.141Z,15.80
2022-10-10T02:45:30.595Z,15.81
2022-10-10T02:47:58.646Z,15.82
2022-10-10T02:50:28.815Z,15.75
2022-10-10T02:52:57.776Z,15.70
2022-10-10T02:55:26.363Z,15.68
2022-10-10T02:57:54.530Z,15.68
2022-10-10T03:00:22.325Z,15.67
2022-10-10T03:02:50.360Z,15.64
2022-10-10T03:05:18.405Z,15.63
2022-10-10T03:07:46.248Z,15.64
2022-10-10T03:10:14.149Z,15.66
2022-10-10T03:12:41.923Z,15.67
2022-10-10T03:15:11.898Z,15.69
2022-10-10T03:17:40.211Z,15.71
2022-10-10T03:20:08.739Z,15.71
2022-10-10T03:22:36.589Z,15.71
2022-10-10T03:25:05.061Z,15.68
2022-10-10T03:27:32.855Z,15.65
2022-10-10T03:30:00.630Z,15.62
2022-10-10T03:32:28.436Z,15.63
2022-10-10T03:34:56.180Z,15.65
2022-10-10T03:37:24.009Z,15.64
2022-10-10T03:39:52.046Z,15.64
2022-10-10T03:42:19.808Z,15.62
2022-10-10T03:44:47.554Z,15.60
2022-10-10T03:47:15.295Z,15.60
2022-10-10T03:49:43.022Z,15.58
2022-10-10T03:52:10.797Z,15.57
2022-10-10T03:54:38.562Z,15.55
2022-10-10T03:57:06.366Z,15.52
2022-10-10T03:59:34.136Z,15.42
2022-10-10T04:02:01.916Z,15.40
2022-10-10T04:04:29.697Z,15.42
2022-10-10T04:06:57.442Z,15.40
2022-10-10T04:09:25.321Z,15.40
2022-10-10T04:11:53.060Z,15.40
2022-10-10T04:14:21.126Z,15.38
2022-10-10T04:16:48.952Z,15.38
2022-10-10T04:19:16.887Z,15.34
2022-10-10T04:21:44.977Z,15.34
2022-10-10T04:24:13.246Z,15.34
2022-10-10T04:26:41.046Z,15.36
2022-10-10T04:29:09.035Z,15.34
2022-10-10T04:31:36.868Z,15.35
2022-10-10T04:34:04.669Z,15.38
2022-10-10T04:36:32.415Z,15.38
2022-10-10T04:39:00.175Z,15.36
2022-10-10T04:41:27.935Z,15.36
2022-10-10T04:43:56.001Z,15.34
2022-10-10T04:46:23.900Z,15.33
2022-10-10T04:48:51.749Z,15.32
2022-10-10T04:51:19.519Z,15.30
2022-10-10T04:53:50.374Z,15.30
2022-10-10T04:56:18.371Z,15.28
2022-10-10T04:58:46.162Z,15.26
2022-10-10T05:01:14.152Z,15.23
2022-10-10T05:03:41.977Z,15.20
2022-10-10T05:06:09.793Z,15.21
2022-10-10T05:08:40.527Z,15.20
2022-10-10T05:11:08.331Z,15.24
2022-10-10T05:13:37.254Z,15.27
2022-10-10T05:16:05.269Z,15.27
2022-10-10T05:18:33.464Z,15.23
2022-10-10T05:21:03.666Z,15.22
2022-10-10T05:23:32.134Z,15.21
2022-10-10T05:25:59.955Z,15.19
2022-10-10T05:28:27.815Z,15.15
2022-10-10T05:30:55.634Z,15.15
2022-10-10T05:33:23.480Z,15.11
2022-10-10T05:35:51.258Z,15.11
2022-10-10T05:38:19.127Z,15.13
2022-10-10T05:40:46.853Z,15.12
2022-10-10T05:43:15.115Z,15.19
2022-10-10T05:45:43.328Z,15.23
2022-10-10T05:48:11.098Z,15.24
2022-10-10T05:50:41.809Z,15.25
2022-10-10T05:53:09.577Z,15.27
2022-10-10T05:55:37.369Z,15.26
2022-10-10T05:58:05.808Z,15.29
2022-10-10T06:00:34.979Z,15.30
2022-10-10T06:03:03.291Z,15.32
2022-10-10T06:05:31.135Z,15.34
2022-10-10T06:08:07.969Z,15.37
2022-10-10T06:10:42.982Z,15.43
2022-10-10T06:13:14.466Z,15.43
2022-10-10T06:15:42.656Z,15.46
2022-10-10T06:18:11.651Z,15.52
2022-10-10T06:20:41.194Z,15.59
2022-10-10T06:23:09.541Z,15.63
2022-10-10T06:25:41.764Z,15.68
2022-10-10T06:28:11.472Z,15.75
2022-10-10T06:30:44.194Z,15.80
2022-10-10T06:33:12.936Z,15.85
2022-10-10T06:35:45.781Z,15.92
2022-10-10T06:38:15.498Z,16.01
2022-10-10T06:40:44.158Z,16.06
2022-10-10T06:43:14.064Z,16.10
2022-10-10T06:45:47.529Z,16.17
2022-10-10T06:48:16.140Z,16.22
2022-10-10T06:50:43.900Z,16.25
2022-10-10T06:53:11.658Z,16.27
2022-10-10T06:55:47.431Z,16.29
2022-10-10T06:58:15.286Z,16.30
2022-10-10T07:00:53.520Z,16.34
2022-10-10T07:03:22.116Z,16.34
2022-10-10T07:05:55.496Z,16.34
2022-10-10T07:08:24.716Z,16.27
2022-10-10T07:10:52.734Z,16.23
2022-10-10T07:13:21.341Z,16.19
2022-10-10T07:15:49.379Z,16.18
2022-10-10T07:18:20.774Z,16.17
2022-10-10T07:20:49.602Z,16.18
2022-10-10T07:23:18.022Z,16.21
2022-10-10T07:25:46.488Z,16.24
2022-10-10T07:28:14.589Z,16.29
2022-10-10T07:30:45.015Z,16.38
2022-10-10T07:33:14.266Z,16.49
2022-10-10T07:35:42.865Z,16.60
2022-10-10T07:38:13.427Z,16.68
2022-10-10T07:40:41.672Z,16.78
2022-10-10T07:43:09.554Z,16.88
2022-10-10T07:45:37.383Z,16.96
2022-10-10T07:48:05.590Z,17.05
2022-10-10T07:50:33.426Z,17.12
2022-10-10T07:53:01.249Z,17.17
2022-10-10T07:55:29.479Z,17.22
2022-10-10T07:57:59.844Z,17.27
2022-10-10T08:00:27.872Z,17.32
2022-10-10T08:02:55.791Z,17.36
2022-10-10T08:05:23.535Z,17.39
2022-10-10T08:07:51.572Z,17.45
2022-10-10T08:10:19.594Z,17.49
2022-10-10T08:12:48.427Z,17.50
2022-10-10T08:15:16.390Z,17.49
2022-10-10T08:17:44.221Z,17.50
2022-10-10T08:20:12.220Z,17.49
2022-10-10T08:22:40.371Z,17.49
2022-10-10T08:25:08.806Z,17.53
2022-10-10T08:27:36.624Z,17.58
2022-10-10T08:30:05.630Z,17.60
2022-10-10T08:32:33.586Z,17.63
2022-10-10T08:35:01.539Z,17.67
2022-10-10T08:37:35.131Z,17.68
2022-10-10T08:40:06.193Z,17.69
2022-10-10T08:42:56.487Z,17.73
2022-10-10T08:45:27.749Z,17.77
2022-10-10T08:48:10.938Z,17.81
2022-10-10T08:50:49.238Z,17.86
2022-10-10T08:53:47.290Z,17.90
2022-10-10T08:56:23.469Z,17.94
2022-10-10T08:59:00.699Z,17.94
2022-10-10T09:01:35.417Z,17.93
2022-10-10T09:04:06.631Z,17.94
2022-10-10T09:07:18.473Z,17.88
2022-10-10T09:10:06.724Z,17.97
2022-10-10T09:13:19.203Z,18.02
2022-10-10T09:16:19.670Z,18.15
2022-10-10T09:18:56.222Z,18.23
2022-10-10T09:21:36.585Z,18.26
2022-10-10T09:24:27.421Z,18.32
2022-10-10T09:27:04.730Z,18.35
2022-10-10T09:29:41.361Z,18.38
2022-10-10T09:32:28.624Z,18.40
2022-10-10T09:35:22.308Z,18.44
2022-10-10T09:38:01.395Z,18.46
2022-10-10T09:40:37.899Z,18.47
2022-10-10T09:43:16.658Z,18.47
2022-10-10T09:45:56.766Z,18.49
2022-10-10T09:48:41.671Z,18.52
2022-10-10T09:51:15.597Z,18.55
2022-10-10T09:53:45.686Z,18.58
2022-10-10T09:56:20.787Z,18.64
2022-10-10T09:58:52.307Z,18.69
2022-10-10T10:01:25.958Z,18.74
2022-10-10T10:04:27.825Z,18.93
2022-10-10T10:07:06.378Z,18.93
2022-10-10T10:09:34.629Z,18.95
2022-10-10T10:12:04.571Z,18.98
2022-10-10T10:14:38.038Z,19.03
2022-10-10T10:17:21.119Z,19.10
2022-10-10T10:19:49.424Z,19.16
2022-10-10T10:22:47.212Z,19.19
2022-10-10T10:25:37.736Z,19.26
2022-10-10T10:28:11.678Z,19.31
2022-10-10T10:30:41.229Z,19.32
2022-10-10T10:34:00.127Z,19.39
2022-10-10T10:36:46.464Z,19.48
2022-10-10T10:39:25.811Z,19.54
2022-10-10T10:42:59.394Z,19.61
2022-10-10T10:46:01.012Z,19.69
2022-10-10T10:49:14.690Z,19.72
2022-10-10T10:52:16.080Z,19.79
2022-10-10T10:54:52.844Z,19.82
2022-10-10T10:58:48.828Z,19.87
2022-10-10T11:01:23.961Z,19.98
2022-10-10T11:05:18.246Z,20.04
2022-10-10T11:07:19.516Z,20.11
2022-10-10T11:10:12.099Z,20.18
2022-10-10T11:13:25.099Z,20.26
2022-10-10T11:16:36.286Z,20.36
2022-10-10T11:19:39.406Z,20.41
2022-10-10T11:22:22.333Z,20.46
2022-10-10T11:25:23.438Z,20.51
2022-10-10T11:28:24.207Z,20.58
2022-10-10T11:30:59.738Z,20.63
2022-10-10T11:33:44.467Z,20.68
2022-10-10T11:36:15.297Z,20.72
2022-10-10T11:39:15.602Z,20.79
2022-10-10T11:42:35.709Z,20.87
2022-10-10T11:45:15.781Z,20.93
2022-10-10T11:48:00.902Z,20.97
2022-10-10T11:50:34.541Z,21.02
2022-10-10T11:53:16.356Z,21.10
2022-10-10T11:55:55.973Z,21.18
2022-10-10T11:58:35.537Z,21.24
2022-10-10T12:01:28.911Z,21.32
2022-10-10T12:03:57.511Z,21.43
2022-10-10T12:06:39.567Z,21.50
2022-10-10T12:09:14.109Z,21.57
2022-10-10T12:11:59.521Z,21.67
2022-10-10T12:14:31.401Z,21.75
2022-10-10T12:17:00.322Z,21.81
2022-10-10T12:19:29.110Z,21.89
2022-10-10T12:21:59.768Z,21.95
2022-10-10T12:24:32.158Z,22.02
2022-10-10T12:26:59.808Z,22.08
2022-10-10T12:29:57.692Z,22.17
2022-10-10T12:32:42.792Z,22.25
2022-10-10T12:35:42.399Z,22.27
2022-10-10T12:38:25.656Z,22.38
2022-10-10T12:41:08.921Z,22.47
2022-10-10T12:43:43.287Z,22.50
2022-10-10T12:46:21.738Z,22.55
2022-10-10T12:49:20.484Z,22.65
2022-10-10T12:52:21.857Z,22.76
2022-10-10T12:54:52.051Z,22.81
2022-10-10T12:57:26.066Z,22.86
2022-10-10T12:59:56.593Z,22.89
2022-10-10T13:02:28.274Z,22.92
2022-10-10T13:05:02.604Z,22.96
2022-10-10T13:07:31.474Z,23.02
2022-10-10T13:10:20.233Z,23.05
2022-10-10T13:13:20.029Z,23.19
2022-10-10T13:15:57.275Z,23.26
2022-10-10T13:18:42.220Z,23.31
2022-10-10T13:21:14.544Z,23.37
2022-10-10T13:26:50.205Z,23.55
2022-10-10T13:29:36.656Z,23.59
2022-10-10T13:32:11.439Z,23.69
2022-10-10T13:34:45.611Z,23.75
2022-10-10T13:37:17.804Z,23.84
2022-10-10T13:39:47.941Z,23.86
2022-10-10T13:42:37.139Z,23.91
2022-10-10T13:45:27.882Z,23.97
2022-10-10T13:48:00.983Z,24.08
2022-10-10T13:50:34.157Z,24.14
2022-10-10T13:53:27.009Z,24.13
2022-10-10T13:56:06.810Z,24.18
2022-10-10T13:58:54.581Z,24.21
2022-10-10T14:01:38.954Z,24.21
2022-10-10T14:04:12.678Z,24.20
2022-10-10T14:07:02.331Z,24.16
2022-10-10T14:09:42.203Z,24.15
2022-10-10T14:12:32.011Z,24.14
2022-10-10T14:15:01.637Z,24.12
2022-10-10T14:17:29.870Z,24.11
2022-10-10T14:19:58.090Z,24.14
2022-10-10T14:22:26.797Z,24.17
2022-10-10T14:24:54.668Z,24.20
2022-10-10T14:27:24.277Z,24.23
2022-10-10T14:29:54.480Z,24.22
2022-10-10T14:32:23.775Z,24.16
2022-10-10T14:34:51.964Z,24.14
2022-10-10T14:37:25.291Z,24.13
2022-10-10T14:39:53.488Z,24.23
2022-10-10T14:42:23.568Z,24.18
2022-10-10T14:44:51.506Z,24.09
2022-10-10T14:47:25.042Z,24.08
2022-10-10T14:49:53.492Z,23.98
2022-10-10T14:52:21.494Z,24.00
2022-10-10T14:54:49.265Z,23.95
2022-10-10T14:57:19.765Z,23.99
2022-10-10T14:59:50.028Z,24.07
2022-10-10T15:02:22.715Z,24.11
2022-10-10T15:04:50.878Z,24.21
2022-10-10T15:07:19.222Z,24.25
2022-10-10T15:10:26.086Z,24.31
2022-10-10T15:12:40.925Z,24.37
2022-10-10T15:15:11.136Z,24.33
2022-10-10T15:17:39.410Z,24.31
2022-10-10T15:20:10.392Z,24.27
2022-10-10T15:22:38.963Z,24.18
2022-10-10T15:25:08.707Z,24.18
2022-10-10T15:27:37.634Z,24.17
2022-10-10T15:30:07.040Z,24.21
2022-10-10T15:32:40.042Z,24.25
2022-10-10T15:35:13.221Z,24.26
2022-10-10T15:37:41.033Z,24.12
2022-10-10T15:40:09.748Z,24.04
2022-10-10T15:42:37.644Z,24.03
2022-10-10T15:45:05.944Z,23.98
2022-10-10T15:47:33.903Z,24.00
2022-10-10T15:50:01.746Z,23.97
2022-10-10T15:52:29.517Z,23.95
2022-10-10T15:54:57.392Z,23.92
2022-10-10T15:57:25.189Z,23.91
2022-10-10T15:59:52.922Z,23.86
2022-10-10T16:02:20.828Z,23.77
2022-10-10T16:04:48.751Z,23.71
2022-10-10T16:07:38.439Z,23.71
2022-10-10T16:10:04.872Z,23.70
2022-10-10T16:12:32.729Z,23.65
2022-10-10T16:15:06.001Z,23.66
2022-10-10T16:17:35.035Z,23.64
2022-10-10T16:20:03.204Z,23.57
2022-10-10T16:22:31.124Z,23.54
2022-10-10T16:27:47.980Z,23.50
2022-10-10T16:30:16.590Z,23.46
2022-10-10T16:32:44.469Z,23.37
2022-10-10T16:35:12.259Z,23.29
2022-10-10T16:37:40.155Z,23.22
2022-10-10T16:40:08.862Z,23.16
2022-10-10T16:42:36.859Z,23.13
2022-10-10T16:45:05.821Z,23.06
2022-10-10T16:47:34.069Z,22.97
2022-10-10T16:50:02.472Z,22.90
2022-10-10T16:52:30.519Z,22.84
2022-10-10T16:54:58.274Z,22.74
2022-10-10T16:57:26.077Z,22.65
2022-10-10T16:59:53.822Z,22.57
2022-10-10T17:02:24.557Z,22.55
2022-10-10T17:04:52.837Z,22.49
2022-10-10T17:07:21.050Z,22.46
2022-10-10T17:09:48.901Z,22.42
2022-10-10T17:12:17.005Z,22.36
2022-10-10T17:14:44.778Z,22.31
2022-10-10T17:17:13.592Z,22.25
2022-10-10T17:19:41.743Z,22.16
2022-10-10T17:22:09.610Z,22.08
2022-10-10T17:24:37.442Z,22.04
2022-10-10T17:27:05.267Z,22.01
2022-10-10T17:29:33.095Z,21.95
2022-10-10T17:32:05.941Z,21.91
2022-10-10T17:34:34.966Z,22.00
2022-10-10T17:37:03.954Z,21.96
2022-10-10T17:39:32.604Z,21.86
2022-10-10T17:42:00.635Z,21.82
2022-10-10T17:44:28.494Z,21.78
2022-10-10T17:46:56.343Z,21.71
2022-10-10T17:49:24.443Z,21.66
2022-10-10T17:51:52.260Z,21.61
2022-10-10T17:54:20.204Z,21.55
2022-10-10T17:56:47.989Z,21.50
2022-10-10T17:59:16.358Z,21.48
2022-10-10T18:01:44.186Z,21.51
2022-10-10T18:04:15.915Z,21.51
2022-10-10T18:06:43.753Z,21.50
2022-10-10T18:09:11.789Z,21.40
2022-10-10T18:11:39.603Z,21.27
2022-10-10T18:14:07.357Z,21.02
2022-10-10T18:16:35.853Z,20.98
2022-10-10T18:19:07.482Z,20.85
2022-10-10T18:21:35.520Z,20.68
2022-10-10T18:24:03.641Z,20.46
2022-10-10T18:26:32.046Z,20.24
2022-10-10T18:28:59.898Z,20.08
2022-10-10T18:31:33.295Z,19.98
2022-10-10T18:34:03.389Z,19.91
2022-10-10T18:36:36.007Z,19.82
2022-10-10T18:39:16.579Z,19.70
2022-10-10T18:41:44.568Z,19.59
2022-10-10T18:44:16.900Z,19.52
2022-10-10T18:46:46.303Z,19.48
2022-10-10T18:49:14.489Z,19.46
2022-10-10T18:51:43.646Z,19.51
2022-10-10T18:54:17.012Z,19.51
2022-10-10T18:56:46.133Z,19.50
2022-10-10T18:59:22.212Z,19.43
2022-10-10T19:01:52.438Z,19.39
2022-10-10T19:04:21.433Z,19.36
2022-10-10T19:06:54.651Z,19.41
2022-10-10T19:09:25.182Z,19.40
2022-10-10T19:11:53.510Z,19.17
2022-10-10T19:14:21.573Z,19.12
2022-10-10T19:16:49.457Z,18.85
2022-10-10T19:19:19.897Z,18.60
2022-10-10T19:21:48.674Z,18.36
2022-10-10T19:24:20.851Z,18.21
2022-10-10T19:26:56.005Z,18.05
2022-10-10T19:29:27.508Z,18.00
2022-10-10T19:31:56.243Z,17.92
2022-10-10T19:34:24.300Z,17.86
2022-10-10T19:36:52.167Z,17.81
2022-10-10T19:39:20.116Z,17.83
2022-10-10T19:41:48.021Z,17.81
2022-10-10T19:44:15.885Z,17.78
2022-10-10T19:46:43.680Z,17.69
2022-10-10T19:49:11.675Z,17.64
2022-10-10T19:51:39.647Z,17.62
2022-10-10T19:54:07.481Z,17.65
2022-10-10T19:56:36.735Z,17.69
2022-10-10T19:59:05.770Z,17.74
2022-10-10T20:01:33.722Z,17.80
2022-10-10T20:04:01.623Z,17.82
2022-10-10T20:06:29.456Z,17.85
2022-10-10T20:08:57.428Z,17.89
2022-10-10T20:11:26.485Z,17.90
2022-10-10T20:13:55.778Z,17.89
2022-10-10T20:16:26.853Z,17.89
2022-10-10T20:18:57.137Z,17.92
2022-10-10T20:21:32.686Z,17.96
2022-10-10T20:24:08.224Z,17.98
2022-10-10T20:26:36.741Z,18.01
2022-10-10T20:29:06.080Z,18.03
2022-10-10T20:31:36.208Z,18.08
2022-10-10T20:34:06.941Z,18.13
2022-10-10T20:36:35.498Z,18.17
2022-10-10T20:39:08.321Z,18.21
2022-10-10T20:41:38.447Z,18.24
2022-10-10T20:44:08.302Z,18.30
2022-10-10T20:46:39.258Z,18.32
2022-10-10T20:49:16.957Z,18.39
2022-10-10T20:51:48.678Z,18.41
2022-10-10T20:54:24.533Z,18.41
2022-10-10T20:56:52.396Z,18.45
2022-10-10T20:59:21.408Z,18.46
2022-10-10T21:01:49.307Z,18.47
2022-10-10T21:04:17.367Z,18.48
2022-10-10T21:06:45.368Z,18.52
2022-10-10T21:09:15.327Z,18.54
2022-10-10T21:11:46.473Z,18.54
2022-10-10T21:14:16.653Z,18.54
2022-10-10T21:16:44.753Z,18.51
2022-10-10T21:19:13.577Z,18.50
2022-10-10T21:21:41.373Z,18.48
2022-10-10T21:24:11.332Z,18.58
2022-10-10T21:26:41.711Z,18.57
2022-10-10T21:29:09.980Z,18.59
2022-10-10T21:31:40.187Z,18.61
2022-10-10T21:34:13.387Z,18.65
2022-10-10T21:36:41.654Z,18.55
2022-10-10T21:39:11.419Z,18.54
2022-10-10T21:41:39.404Z,18.57
2022-10-10T21:44:07.260Z,18.58
2022-10-10T21:46:37.107Z,18.62
2022-10-10T21:49:09.187Z,18.57
2022-10-10T21:51:40.775Z,18.63
2022-10-10T21:54:10.063Z,18.63
2022-10-10T21:56:38.656Z,18.53
2022-10-10T21:59:07.118Z,18.53
2022-10-10T22:01:37.422Z,18.61
2022-10-10T22:04:06.103Z,18.62
2022-10-10T22:06:34.795Z,18.50
2022-10-10T22:09:02.882Z,18.48
2022-10-10T22:11:34.517Z,18.44
2022-10-10T22:14:03.860Z,18.36
2022-10-10T22:16:33.666Z,18.36
2022-10-10T22:19:04.339Z,18.42
2022-10-10T22:21:34.914Z,18.38
2022-10-10T22:24:07.570Z,18.42
2022-10-10T22:26:36.275Z,18.36
2022-10-10T22:29:04.745Z,18.53
2022-10-10T22:31:35.636Z,18.59
2022-10-10T22:34:05.782Z,18.60
2022-10-10T22:36:34.451Z,18.58
2022-10-10T22:39:02.289Z,18.56
2022-10-10T22:41:30.100Z,18.61
2022-10-10T22:43:57.865Z,18.55
2022-10-10T22:46:25.790Z,18.56
2022-10-10T22:48:53.564Z,18.58
2022-10-10T22:51:21.458Z,18.58
2022-10-10T22:53:49.404Z,18.61
2022-10-10T22:56:20.408Z,18.63
2022-10-10T22:58:50.319Z,18.66
2022-10-10T23:01:23.371Z,18.69
2022-10-10T23:03:56.750Z,18.73
2022-10-10T23:06:24.835Z,18.74
2022-10-10T23:08:53.828Z,18.71
2022-10-10T23:11:21.635Z,18.70
2022-10-10T23:13:49.407Z,18.68
2022-10-10T23:16:17.139Z,18.65
2022-10-10T23:18:45.213Z,18.64
2022-10-10T23:21:13.049Z,18.57
2022-10-10T23:23:41.051Z,18.53
2022-10-10T23:26:09.881Z,18.40
2022-10-10T23:28:39.427Z,18.35
2022-10-10T23:31:10.120Z,18.27
2022-10-10T23:33:39.071Z,18.22
2022-10-10T23:36:11.587Z,18.27
2022-10-10T23:38:40.829Z,18.32
2022-10-10T23:41:10.348Z,18.30
2022-10-10T23:43:38.632Z,18.28
2022-10-10T23:46:07.155Z,18.27
2022-10-10T23:48:35.559Z,18.28
2022-10-10T23:51:04.786Z,18.19
2022-10-10T23:53:33.909Z,18.14
2022-10-10T23:56:02.119Z,18.17
2022-10-10T23:58:30.276Z,18.16
